Time;durP1;ratioP1;P1;durP2;ratioP2;P2;SDS_P1;SDS_P2;PMS_P1;PMS_P2;Temp;Humidity;BMP_temperature;BMP_pressure;BME280_temperature;BME280_humidity;BME280_pressure;Samples;Min_cycle;Max_cycle;Signal;HPM_P1;HPM_P2
2022/01/05 00:01:36;;;;;;;;;1.00;0.00;;;;;;;;5078658;28;45217;-77
2022/01/05 00:04:01;;;;;;;;;1.00;0.00;;;;;;;;5078141;28;45685;-78
2022/01/05 00:06:27;;;;;;;;;1.00;0.00;;;;;;;;5077665;28;45424;-77
2022/01/05 00:08:52;;;;;;;;;1.00;0.00;;;;;;;;5077912;28;45482;-78
2022/01/05 00:11:18;;;;;;;;;1.00;0.00;;;;;;;;5059329;28;45365;-78
2022/01/05 00:13:43;;;;;;;;;0.00;0.00;;;;;;;;5077489;28;45703;-78
2022/01/05 00:16:09;;;;;;;;;0.00;0.00;;;;;;;;5077960;28;45378;-78
2022/01/05 00:18:34;;;;;;;;;0.00;0.00;;;;;;;;5059703;28;45465;-78
2022/01/05 00:21:01;;;;;;;;;1.25;0.00;;;;;;;;5077729;28;45314;-78
2022/01/05 00:23:27;;;;;;;;;0.25;0.00;;;;;;;;5059289;28;45440;-78
2022/01/05 00:25:52;;;;;;;;;0.00;0.00;;;;;;;;5077142;28;45485;-78
2022/01/05 00:28:18;;;;;;;;;0.00;0.00;;;;;;;;5059096;28;45576;-78
2022/01/05 00:30:43;;;;;;;;;0.00;0.00;;;;;;;;5077200;28;45207;-78
2022/01/05 00:33:08;;;;;;;;;0.00;0.00;;;;;;;;5077106;28;46001;-78
2022/01/05 00:35:34;;;;;;;;;0.00;0.00;;;;;;;;5077491;28;45592;-78
2022/01/05 00:37:59;;;;;;;;;0.00;0.00;;;;;;;;5077190;28;45504;-78
2022/01/05 00:40:25;;;;;;;;;0.00;0.00;;;;;;;;5059214;28;45271;-78
2022/01/05 00:42:50;;;;;;;;;0.00;0.00;;;;;;;;5077009;28;45488;-78
2022/01/05 00:45:16;;;;;;;;;0.00;0.00;;;;;;;;5077269;28;45308;-78
2022/01/05 00:47:41;;;;;;;;;0.00;0.00;;;;;;;;5077302;28;45540;-78
2022/01/05 00:50:07;;;;;;;;;0.00;0.00;;;;;;;;5077617;28;45337;-79
2022/01/05 00:52:32;;;;;;;;;1.00;0.00;;;;;;;;5058791;28;46784;-78
2022/01/05 00:54:57;;;;;;;;;0.00;0.00;;;;;;;;5077958;28;45373;-78
2022/01/05 00:57:23;;;;;;;;;0.00;0.00;;;;;;;;5080945;28;45414;-78
2022/01/05 00:59:48;;;;;;;;;0.00;0.00;;;;;;;;5081166;28;45512;-78
2022/01/05 01:02:13;;;;;;;;;0.00;0.00;;;;;;;;5061210;28;45518;-78
2022/01/05 01:04:39;;;;;;;;;0.00;0.00;;;;;;;;5080674;28;45309;-78
2022/01/05 01:07:04;;;;;;;;;0.00;0.00;;;;;;;;5080751;28;45329;-78
2022/01/05 01:09:29;;;;;;;;;0.00;0.00;;;;;;;;5080850;28;45350;-78
2022/01/05 01:11:55;;;;;;;;;0.00;0.00;;;;;;;;5080228;28;45601;-78
2022/01/05 01:14:20;;;;;;;;;1.00;0.00;;;;;;;;5080377;28;45467;-78
2022/01/05 01:16:45;;;;;;;;;0.00;0.00;;;;;;;;5080566;28;45380;-79
2022/01/05 01:19:11;;;;;;;;;0.00;0.00;;;;;;;;5081018;27;45365;-79
2022/01/05 01:21:37;;;;;;;;;0.25;0.00;;;;;;;;5080396;28;45524;-78
2022/01/05 01:24:02;;;;;;;;;0.00;0.00;;;;;;;;5080372;27;45386;-78
2022/01/05 01:26:29;;;;;;;;;0.00;0.00;;;;;;;;5080017;27;45378;-78
2022/01/05 01:28:55;;;;;;;;;0.00;0.00;;;;;;;;5062185;28;45453;-79
2022/01/05 01:31:20;;;;;;;;;0.50;0.00;;;;;;;;5079983;27;45431;-78
2022/01/05 01:33:46;;;;;;;;;2.50;0.00;;;;;;;;5079907;28;45283;-78
2022/01/05 01:36:11;;;;;;;;;1.00;0.00;;;;;;;;5080525;28;45358;-78
2022/01/05 01:38:37;;;;;;;;;1.00;0.00;;;;;;;;5080308;28;45235;-78
2022/01/05 01:41:03;;;;;;;;;0.00;0.00;;;;;;;;5079490;27;45510;-78
2022/01/05 01:43:28;;;;;;;;;0.00;0.00;;;;;;;;5080091;28;45470;-78
2022/01/05 01:45:53;;;;;;;;;0.00;0.00;;;;;;;;5061781;28;45422;-78
2022/01/05 01:48:19;;;;;;;;;0.00;0.00;;;;;;;;5079716;28;45442;-78
2022/01/05 01:50:44;;;;;;;;;0.00;0.00;;;;;;;;5080091;28;46149;-78
2022/01/05 01:53:09;;;;;;;;;0.00;0.00;;;;;;;;5079793;28;45375;-78
2022/01/05 01:55:35;;;;;;;;;0.00;0.00;;;;;;;;5079797;28;45365;-78
2022/01/05 01:58:00;;;;;;;;;0.00;0.00;;;;;;;;5079745;28;45628;-78
2022/01/05 02:00:26;;;;;;;;;0.00;0.00;;;;;;;;5079461;28;46088;-78
2022/01/05 02:02:51;;;;;;;;;0.75;0.00;;;;;;;;5079671;28;45621;-78
2022/01/05 02:05:17;;;;;;;;;0.00;0.00;;;;;;;;5079587;28;45290;-78
2022/01/05 02:07:42;;;;;;;;;0.00;0.00;;;;;;;;5079510;28;45473;-78
2022/01/05 02:10:08;;;;;;;;;0.00;0.00;;;;;;;;5079348;28;45775;-78
2022/01/05 02:12:34;;;;;;;;;0.00;0.00;;;;;;;;5079615;27;45362;-78
2022/01/05 02:15:00;;;;;;;;;0.00;0.00;;;;;;;;5079087;28;45452;-78
2022/01/05 02:17:42;;;;;;;;;0.00;0.00;;;;;;;;5079634;28;45415;-78
2022/01/05 02:20:18;;;;;;;;;0.00;0.00;;;;;;;;5079288;28;46232;-78
2022/01/05 02:22:45;;;;;;;;;0.00;0.00;;;;;;;;5079488;28;45590;-78
2022/01/05 02:25:10;;;;;;;;;0.00;0.00;;;;;;;;5079264;28;45491;-78
2022/01/05 02:27:37;;;;;;;;;1.00;0.00;;;;;;;;5080782;28;45281;-78
2022/01/05 02:30:03;;;;;;;;;0.00;0.00;;;;;;;;5079396;28;45512;-79
2022/01/05 02:32:28;;;;;;;;;1.50;0.00;;;;;;;;5079046;28;45490;-78
2022/01/05 02:34:53;;;;;;;;;0.00;0.00;;;;;;;;5079228;28;45422;-78
2022/01/05 02:37:19;;;;;;;;;0.00;0.00;;;;;;;;5079576;28;45499;-78
2022/01/05 02:39:44;;;;;;;;;0.00;0.00;;;;;;;;5079367;28;45513;-78
2022/01/05 02:42:09;;;;;;;;;0.00;0.00;;;;;;;;5078967;28;45504;-78
2022/01/05 02:44:35;;;;;;;;;0.00;0.00;;;;;;;;5079172;28;45343;-78
2022/01/05 02:47:00;;;;;;;;;0.00;0.00;;;;;;;;5079300;28;45438;-78
2022/01/05 02:49:26;;;;;;;;;0.00;0.00;;;;;;;;5079011;28;45514;-79
2022/01/05 02:51:51;;;;;;;;;0.00;0.00;;;;;;;;5078946;28;45477;-78
2022/01/05 02:54:17;;;;;;;;;0.25;0.00;;;;;;;;5079008;28;45307;-78
2022/01/05 02:56:42;;;;;;;;;0.75;0.00;;;;;;;;5078912;28;45442;-78
2022/01/05 02:59:07;;;;;;;;;0.00;0.00;;;;;;;;5078788;28;45326;-79
2022/01/05 03:01:34;;;;;;;;;1.00;0.00;;;;;;;;5078897;28;45524;-78
2022/01/05 03:03:59;;;;;;;;;0.25;0.00;;;;;;;;5078930;28;45584;-79
2022/01/05 03:06:24;;;;;;;;;0.00;0.00;;;;;;;;5079061;28;45402;-80
2022/01/05 03:08:51;;;;;;;;;1.75;1.00;;;;;;;;5078690;28;46273;-78
2022/01/05 03:11:16;;;;;;;;;1.25;1.25;;;;;;;;5078702;27;45573;-79
2022/01/05 03:13:43;;;;;;;;;0.00;0.00;;;;;;;;5078428;28;45497;-79
2022/01/05 03:16:08;;;;;;;;;0.00;0.00;;;;;;;;5078952;28;45371;-79
2022/01/05 03:18:33;;;;;;;;;0.25;0.00;;;;;;;;5077326;27;45720;-79
2022/01/05 03:20:59;;;;;;;;;0.00;0.00;;;;;;;;5078638;28;45868;-78
2022/01/05 03:23:24;;;;;;;;;0.00;0.00;;;;;;;;5078547;27;45748;-78
2022/01/05 03:25:49;;;;;;;;;1.50;0.00;;;;;;;;5078571;28;45417;-79
2022/01/05 03:28:15;;;;;;;;;1.00;0.00;;;;;;;;5078494;28;46523;-78
2022/01/05 03:30:41;;;;;;;;;0.00;0.00;;;;;;;;5078063;28;45491;-78
2022/01/05 03:33:11;;;;;;;;;0.25;0.00;;;;;;;;5078040;28;45477;-78
2022/01/05 03:35:38;;;;;;;;;0.00;0.00;;;;;;;;5078366;28;45464;-78
2022/01/05 03:38:04;;;;;;;;;0.00;0.00;;;;;;;;5078189;28;45456;-78
2022/01/05 03:40:30;;;;;;;;;0.00;0.00;;;;;;;;5078155;28;45358;-78
2022/01/05 03:42:56;;;;;;;;;0.00;0.00;;;;;;;;5078316;28;45443;-78
2022/01/05 03:45:21;;;;;;;;;0.00;0.00;;;;;;;;5078278;28;45367;-78
2022/01/05 03:47:47;;;;;;;;;0.00;0.00;;;;;;;;5078226;28;45492;-78
2022/01/05 03:50:12;;;;;;;;;0.00;0.00;;;;;;;;5078022;28;45322;-78
2022/01/05 03:52:37;;;;;;;;;1.00;0.00;;;;;;;;5078206;28;45224;-78
2022/01/05 03:55:04;;;;;;;;;0.00;0.00;;;;;;;;5077994;28;45427;-78
2022/01/05 03:57:29;;;;;;;;;0.00;0.00;;;;;;;;5077550;28;47543;-78
2022/01/05 03:59:55;;;;;;;;;0.50;0.00;;;;;;;;5077525;28;45326;-78
2022/01/05 04:02:20;;;;;;;;;1.00;0.00;;;;;;;;5078290;28;45484;-78
2022/01/05 04:04:46;;;;;;;;;0.75;0.00;;;;;;;;5078123;27;45344;-78
2022/01/05 04:07:12;;;;;;;;;2.00;0.00;;;;;;;;5077769;28;45493;-78
2022/01/05 04:09:38;;;;;;;;;0.50;0.00;;;;;;;;5077601;28;45955;-78
2022/01/05 04:12:03;;;;;;;;;0.00;0.00;;;;;;;;5077915;28;45339;-79
2022/01/05 04:14:28;;;;;;;;;0.00;0.00;;;;;;;;5077887;28;45356;-78
2022/01/05 04:16:54;;;;;;;;;0.00;0.00;;;;;;;;5077437;28;46034;-78
2022/01/05 04:19:19;;;;;;;;;0.00;0.00;;;;;;;;5078890;28;45448;-78
2022/01/05 04:21:44;;;;;;;;;0.00;0.00;;;;;;;;5078257;28;45465;-78
2022/01/05 04:24:10;;;;;;;;;0.00;0.00;;;;;;;;5077804;28;45300;-78
2022/01/05 04:26:35;;;;;;;;;0.00;0.00;;;;;;;;5077384;28;46327;-78
2022/01/05 04:29:00;;;;;;;;;0.00;0.00;;;;;;;;5077383;28;45437;-78
2022/01/05 04:31:26;;;;;;;;;0.00;0.00;;;;;;;;5077693;28;45590;-78
2022/01/05 04:33:51;;;;;;;;;0.00;0.00;;;;;;;;5077884;28;45502;-78
2022/01/05 04:36:16;;;;;;;;;0.00;0.00;;;;;;;;5077221;28;45574;-79
2022/01/05 04:38:42;;;;;;;;;0.50;0.00;;;;;;;;5077130;28;45838;-78
2022/01/05 04:41:07;;;;;;;;;1.00;0.00;;;;;;;;5077569;28;45402;-78
2022/01/05 04:43:32;;;;;;;;;1.00;0.00;;;;;;;;5077917;28;45413;-78
2022/01/05 04:45:58;;;;;;;;;0.00;0.00;;;;;;;;5077110;28;45717;-78
2022/01/05 04:48:23;;;;;;;;;0.00;0.00;;;;;;;;5077435;28;45854;-78
2022/01/05 04:50:48;;;;;;;;;0.00;0.00;;;;;;;;5059466;28;45322;-79
2022/01/05 04:53:14;;;;;;;;;0.00;0.00;;;;;;;;5077309;28;45447;-78
2022/01/05 04:55:40;;;;;;;;;0.00;0.00;;;;;;;;5076877;28;46227;-78
2022/01/05 04:58:05;;;;;;;;;0.00;0.00;;;;;;;;5077568;28;45165;-78
2022/01/05 05:00:31;;;;;;;;;0.00;0.00;;;;;;;;5077291;28;45302;-78
2022/01/05 05:02:56;;;;;;;;;0.25;0.00;;;;;;;;5078209;28;45456;-78
2022/01/05 05:05:21;;;;;;;;;0.50;0.00;;;;;;;;5077366;28;46018;-78
2022/01/05 05:07:47;;;;;;;;;0.00;0.00;;;;;;;;5077043;28;45670;-78
2022/01/05 05:10:12;;;;;;;;;0.75;0.00;;;;;;;;5077319;28;45743;-78
2022/01/05 05:12:37;;;;;;;;;0.00;0.00;;;;;;;;5077981;28;45666;-78
2022/01/05 05:15:03;;;;;;;;;1.00;0.00;;;;;;;;5077662;27;45472;-78
2022/01/05 05:17:28;;;;;;;;;0.00;0.00;;;;;;;;5077159;28;45369;-77
2022/01/05 05:19:54;;;;;;;;;0.00;0.00;;;;;;;;5077467;28;45548;-78
2022/01/05 05:22:19;;;;;;;;;0.00;0.00;;;;;;;;5077964;27;45395;-78
2022/01/05 05:24:44;;;;;;;;;0.00;0.00;;;;;;;;5076678;28;45309;-78
2022/01/05 05:27:10;;;;;;;;;0.00;0.00;;;;;;;;5076598;28;45461;-78
2022/01/05 05:29:35;;;;;;;;;0.00;0.00;;;;;;;;5076800;28;45495;-78
2022/01/05 05:32:00;;;;;;;;;0.00;0.00;;;;;;;;5076031;28;45437;-78
2022/01/05 05:34:26;;;;;;;;;0.00;0.00;;;;;;;;5074505;28;45472;-77
2022/01/05 05:36:51;;;;;;;;;0.00;0.00;;;;;;;;5075322;28;45405;-77
2022/01/05 05:39:17;;;;;;;;;0.00;0.00;;;;;;;;5075387;28;45906;-78
2022/01/05 05:41:42;;;;;;;;;0.00;0.00;;;;;;;;5077150;28;45666;-77
2022/01/05 05:44:08;;;;;;;;;0.00;0.00;;;;;;;;5078372;28;45467;-78
2022/01/05 05:46:34;;;;;;;;;1.00;0.00;;;;;;;;5078079;28;45385;-77
2022/01/05 05:48:59;;;;;;;;;0.00;0.00;;;;;;;;5078131;28;45382;-77
2022/01/05 05:51:24;;;;;;;;;0.00;0.00;;;;;;;;5078449;28;45849;-77
2022/01/05 05:53:50;;;;;;;;;0.00;0.00;;;;;;;;5059836;28;46375;-77
2022/01/05 05:56:15;;;;;;;;;0.50;0.00;;;;;;;;5059799;28;45568;-77
2022/01/05 05:58:40;;;;;;;;;0.00;0.00;;;;;;;;5078086;28;45465;-77
2022/01/05 06:01:06;;;;;;;;;0.00;0.00;;;;;;;;5078417;28;45402;-77
2022/01/05 06:03:31;;;;;;;;;0.00;0.00;;;;;;;;5078044;28;46029;-77
2022/01/05 06:05:56;;;;;;;;;1.00;0.00;;;;;;;;5077953;28;45388;-77
2022/01/05 06:08:22;;;;;;;;;0.00;0.00;;;;;;;;5078405;28;45327;-77
2022/01/05 06:10:47;;;;;;;;;0.50;0.00;;;;;;;;5079188;28;45508;-77
2022/01/05 06:13:12;;;;;;;;;0.00;0.00;;;;;;;;5079799;28;45489;-77
2022/01/05 06:15:38;;;;;;;;;0.00;0.00;;;;;;;;5077681;28;45412;-77
2022/01/05 06:18:03;;;;;;;;;0.00;0.00;;;;;;;;5077960;28;45416;-77
2022/01/05 06:20:29;;;;;;;;;0.00;0.00;;;;;;;;5077942;28;45493;-77
2022/01/05 06:22:54;;;;;;;;;0.00;0.00;;;;;;;;5077937;28;46582;-78
2022/01/05 06:25:19;;;;;;;;;0.00;0.00;;;;;;;;5077937;28;45369;-77
2022/01/05 06:27:45;;;;;;;;;0.00;0.00;;;;;;;;5077715;28;45314;-75
2022/01/05 06:30:10;;;;;;;;;0.00;0.00;;;;;;;;5078096;28;45457;-77
2022/01/05 06:32:41;;;;;;;;;0.50;0.00;;;;;;;;5077799;28;45491;-76
2022/01/05 06:35:06;;;;;;;;;0.00;0.00;;;;;;;;5075254;28;45415;-77
2022/01/05 06:37:32;;;;;;;;;0.00;0.00;;;;;;;;5077351;28;45886;-77
2022/01/05 06:39:57;;;;;;;;;0.00;0.00;;;;;;;;5059631;28;45593;-76
2022/01/05 06:42:22;;;;;;;;;0.00;0.00;;;;;;;;5077501;28;45371;-76
2022/01/05 06:44:48;;;;;;;;;0.00;0.00;;;;;;;;5077455;28;45573;-77
2022/01/05 06:47:13;;;;;;;;;0.00;0.00;;;;;;;;5077298;28;45591;-76
2022/01/05 06:49:38;;;;;;;;;1.00;0.00;;;;;;;;5077453;28;45548;-78
2022/01/05 06:52:04;;;;;;;;;0.00;0.00;;;;;;;;5076940;28;46202;-77
2022/01/05 06:54:30;;;;;;;;;0.00;0.00;;;;;;;;5077190;28;45589;-77
2022/01/05 06:56:55;;;;;;;;;0.00;0.00;;;;;;;;5077106;28;45488;-77
2022/01/05 06:59:21;;;;;;;;;0.00;0.00;;;;;;;;5059470;28;45553;-77
2022/01/05 07:01:46;;;;;;;;;10.00;8.00;;;;;;;;5077076;28;45485;-77
2022/01/05 07:04:11;;;;;;;;;0.00;0.00;;;;;;;;5077025;28;45500;-77
2022/01/05 07:06:37;;;;;;;;;6.50;6.50;;;;;;;;5077239;28;45549;-77
2022/01/05 07:09:03;;;;;;;;;10.00;6.50;;;;;;;;5074382;28;45416;-77
2022/01/05 07:11:28;;;;;;;;;44.50;36.00;;;;;;;;5076716;28;46013;-77
2022/01/05 07:13:53;;;;;;;;;37.00;31.00;;;;;;;;5076858;28;45421;-77
2022/01/05 07:16:19;;;;;;;;;14.50;13.25;;;;;;;;5076791;28;45307;-77
2022/01/05 07:18:44;;;;;;;;;4.25;4.25;;;;;;;;5076858;27;46119;-77
2022/01/05 07:21:09;;;;;;;;;4.00;1.00;;;;;;;;5058373;28;47656;-77
2022/01/05 07:23:35;;;;;;;;;2.50;2.00;;;;;;;;5076844;28;45558;-76
2022/01/05 07:26:00;;;;;;;;;6.00;2.00;;;;;;;;5076657;28;45446;-77
2022/01/05 07:28:26;;;;;;;;;51.00;35.50;;;;;;;;5076617;28;45394;-77
2022/01/05 07:30:51;;;;;;;;;2.50;2.00;;;;;;;;5076566;28;46156;-76
2022/01/05 07:33:17;;;;;;;;;21.25;19.00;;;;;;;;5076322;28;45374;-76
2022/01/05 07:35:42;;;;;;;;;19.25;17.75;;;;;;;;5076435;28;45472;-76
2022/01/05 07:38:07;;;;;;;;;20.00;18.25;;;;;;;;5076826;28;45458;-76
2022/01/05 07:40:33;;;;;;;;;2.25;1.50;;;;;;;;5076181;28;45552;-77
2022/01/05 07:42:58;;;;;;;;;1.00;1.00;;;;;;;;5076036;28;45648;-76
2022/01/05 07:45:25;;;;;;;;;0.00;0.00;;;;;;;;5076724;28;45527;-77
2022/01/05 07:47:50;;;;;;;;;8.00;4.50;;;;;;;;5076704;28;45604;-77
2022/01/05 07:50:16;;;;;;;;;0.75;0.00;;;;;;;;5076112;28;45425;-77
2022/01/05 07:52:42;;;;;;;;;0.00;0.00;;;;;;;;5058301;28;45592;-76
2022/01/05 07:55:08;;;;;;;;;43.25;36.25;;;;;;;;5058693;28;45446;-76
2022/01/05 07:57:34;;;;;;;;;38.00;35.75;;;;;;;;5077843;28;45688;-76
2022/01/05 07:59:59;;;;;;;;;23.00;14.75;;;;;;;;5077813;28;45319;-78
2022/01/05 08:02:24;;;;;;;;;9.00;8.50;;;;;;;;5078407;28;45540;-77
2022/01/05 08:04:50;;;;;;;;;2.75;2.00;;;;;;;;5077382;28;45519;-74
2022/01/05 08:07:15;;;;;;;;;6.25;3.50;;;;;;;;5078160;27;45402;-77
2022/01/05 08:09:41;;;;;;;;;5.50;3.00;;;;;;;;5081787;27;45317;-73
2022/01/05 08:12:06;;;;;;;;;3.75;3.25;;;;;;;;5082638;27;45410;-75
2022/01/05 08:14:32;;;;;;;;;3.50;3.25;;;;;;;;5056582;28;45665;-76
2022/01/05 08:16:57;;;;;;;;;2.00;2.00;;;;;;;;5056646;28;45714;-74
2022/01/05 08:19:22;;;;;;;;;0.75;0.75;;;;;;;;5060640;27;45815;-74
2022/01/05 08:21:48;;;;;;;;;0.25;0.25;;;;;;;;5057713;27;45555;-75
2022/01/05 08:24:13;;;;;;;;;0.00;0.00;;;;;;;;5056708;28;45758;-73
2022/01/05 08:26:38;;;;;;;;;1.75;1.00;;;;;;;;5058782;27;45757;-74
2022/01/05 08:29:04;;;;;;;;;6.75;6.00;;;;;;;;5055610;28;46212;-77
2022/01/05 08:31:29;;;;;;;;;8.00;6.25;;;;;;;;5088523;27;45400;-74
2022/01/05 08:33:56;;;;;;;;;3.00;2.00;;;;;;;;5056132;28;45375;-75
2022/01/05 08:36:22;;;;;;;;;13.00;11.50;;;;;;;;5056758;28;45579;-76
2022/01/05 08:38:48;;;;;;;;;4.50;4.00;;;;;;;;5055912;28;46062;-75
2022/01/05 08:41:13;;;;;;;;;1.00;1.00;;;;;;;;5056226;28;45806;-75
2022/01/05 08:43:38;;;;;;;;;0.00;0.00;;;;;;;;5055327;28;45533;-73
2022/01/05 08:46:04;;;;;;;;;0.50;0.00;;;;;;;;5056613;28;45347;-74
2022/01/05 08:48:29;;;;;;;;;0.00;0.00;;;;;;;;5055931;28;46008;-75
2022/01/05 08:50:55;;;;;;;;;0.00;0.00;;;;;;;;5056181;28;45489;-76
2022/01/05 08:53:21;;;;;;;;;1.75;1.00;;;;;;;;5056094;28;45604;-74
2022/01/05 08:55:48;;;;;;;;;7.25;6.50;;;;;;;;5056251;28;45379;-75
2022/01/05 08:58:14;;;;;;;;;1.00;1.00;;;;;;;;5055764;28;45333;-83
2022/01/05 09:00:39;;;;;;;;;2.50;2.00;;;;;;;;5055534;28;45599;-75
2022/01/05 09:03:05;;;;;;;;;1.00;1.00;;;;;;;;5055948;28;45436;-74
2022/01/05 09:05:31;;;;;;;;;6.50;6.50;;;;;;;;5001072;27;45456;-75
2022/01/05 09:07:57;;;;;;;;;1.00;0.25;;;;;;;;5083436;27;46098;-77
2022/01/05 09:10:22;;;;;;;;;5.25;4.25;;;;;;;;5055157;28;45490;-73
2022/01/05 09:12:48;;;;;;;;;7.75;7.00;;;;;;;;5055243;28;45524;-76
2022/01/05 09:15:13;;;;;;;;;1.00;1.00;;;;;;;;5055921;28;45463;-75
2022/01/05 09:17:39;;;;;;;;;2.00;1.00;;;;;;;;5058354;28;45381;-77
2022/01/05 09:20:05;;;;;;;;;1.75;1.25;;;;;;;;5058636;28;45408;-76
2022/01/05 09:22:30;;;;;;;;;3.75;2.75;;;;;;;;5059558;28;45505;-76
2022/01/05 09:24:55;;;;;;;;;1.00;1.00;;;;;;;;5059268;28;45468;-76
2022/01/05 09:27:21;;;;;;;;;1.00;1.00;;;;;;;;5058926;28;45486;-77
2022/01/05 09:29:47;;;;;;;;;2.75;2.00;;;;;;;;5058950;28;45800;-76
2022/01/05 09:32:12;;;;;;;;;3.75;2.25;;;;;;;;5059899;28;45369;-75
2022/01/05 09:34:41;;;;;;;;;4.75;3.25;;;;;;;;5059960;28;45397;-77
2022/01/05 09:37:20;;;;;;;;;5.00;4.00;;;;;;;;5059490;28;46116;-77
2022/01/05 09:42:32;;;;;;;;;2.00;1.75;;;;;;;;5008216;28;45297;-77
2022/01/05 09:44:58;;;;;;;;;5.00;4.00;;;;;;;;5060227;28;45349;-77
2022/01/05 09:47:35;;;;;;;;;7.50;6.75;;;;;;;;5059691;28;45476;-77
2022/01/05 09:50:03;;;;;;;;;2.50;2.25;;;;;;;;5059783;28;45511;-77
2022/01/05 09:52:30;;;;;;;;;5.00;4.50;;;;;;;;5060019;28;45443;-74
2022/01/05 09:54:56;;;;;;;;;6.00;5.25;;;;;;;;5059857;28;45535;-73
2022/01/05 09:57:22;;;;;;;;;1.00;1.00;;;;;;;;5059369;28;45895;-76
2022/01/05 09:59:48;;;;;;;;;0.33;0.00;;;;;;;;5060746;28;45352;-77
2022/01/05 10:02:14;;;;;;;;;1.00;0.00;;;;;;;;5059652;28;45467;-76
2022/01/05 10:04:39;;;;;;;;;2.00;2.00;;;;;;;;5059692;28;45338;-75
2022/01/05 10:07:05;;;;;;;;;1.00;1.00;;;;;;;;5059604;28;46219;-75
2022/01/05 10:09:30;;;;;;;;;0.00;0.00;;;;;;;;5059666;28;45238;-77
2022/01/05 10:11:56;;;;;;;;;4.25;3.75;;;;;;;;5059310;28;45342;-77
2022/01/05 10:14:21;;;;;;;;;2.00;2.00;;;;;;;;5058610;28;45421;-77
2022/01/05 10:17:00;;;;;;;;;1.75;1.00;;;;;;;;5058701;28;46214;-78
2022/01/05 10:19:25;;;;;;;;;2.00;2.00;;;;;;;;5059538;28;45425;-77
2022/01/05 10:21:51;;;;;;;;;0.00;0.00;;;;;;;;5059336;28;45464;-77
2022/01/05 10:24:17;;;;;;;;;3.00;2.00;;;;;;;;5059373;28;45354;-77
2022/01/05 10:26:42;;;;;;;;;5.00;4.00;;;;;;;;5058721;28;45474;-77
2022/01/05 10:29:15;;;;;;;;;3.25;3.25;;;;;;;;5059361;28;45417;-77
2022/01/05 10:31:41;;;;;;;;;8.00;6.50;;;;;;;;5059087;28;45291;-77
2022/01/05 10:34:14;;;;;;;;;2.00;1.00;;;;;;;;5057671;28;45551;-78
2022/01/05 10:36:46;;;;;;;;;0.00;0.00;;;;;;;;5059217;28;46256;-78
2022/01/05 10:39:12;;;;;;;;;1.00;1.00;;;;;;;;5058772;28;45290;-78
2022/01/05 10:41:38;;;;;;;;;0.00;0.00;;;;;;;;5059088;28;45388;-78
2022/01/05 10:44:18;;;;;;;;;0.33;0.00;;;;;;;;5060342;28;45433;-78
2022/01/05 10:46:47;;;;;;;;;1.00;0.00;;;;;;;;5057748;28;46660;-78
2022/01/05 10:49:33;;;;;;;;;0.67;0.67;;;;;;;;5057781;28;45256;-78
2022/01/05 10:52:00;;;;;;;;;1.00;1.00;;;;;;;;5059055;28;45319;-78
2022/01/05 10:54:27;;;;;;;;;1.00;1.00;;;;;;;;5059055;28;45251;-77
2022/01/05 10:56:54;;;;;;;;;1.00;1.00;;;;;;;;5057229;28;47914;-78
2022/01/05 10:59:28;;;;;;;;;0.00;0.00;;;;;;;;5057312;28;45537;-78
2022/01/05 11:01:54;;;;;;;;;1.67;1.00;;;;;;;;5058680;28;45459;-78
2022/01/05 11:04:21;;;;;;;;;1.00;1.00;;;;;;;;5059050;28;45341;-78
2022/01/05 11:07:02;;;;;;;;;0.00;0.00;;;;;;;;5058373;28;46227;-78
2022/01/05 11:09:28;;;;;;;;;1.00;0.67;;;;;;;;5058239;28;45463;-78
2022/01/05 11:11:53;;;;;;;;;1.00;1.00;;;;;;;;5058647;28;46072;-78
2022/01/05 11:14:26;;;;;;;;;1.67;1.00;;;;;;;;5058719;28;45510;-78
2022/01/05 11:16:52;;;;;;;;;3.00;3.00;;;;;;;;5058180;28;45305;-77
2022/01/05 11:19:21;;;;;;;;;2.00;1.00;;;;;;;;5058233;28;45538;-78
2022/01/05 11:21:55;;;;;;;;;0.00;0.00;;;;;;;;5058715;28;45432;-78
2022/01/05 11:24:21;;;;;;;;;0.00;0.00;;;;;;;;5058518;28;45556;-78
2022/01/05 11:26:47;;;;;;;;;8.50;7.75;;;;;;;;5057995;28;46228;-78
2022/01/05 11:29:12;;;;;;;;;6.25;6.00;;;;;;;;5058233;28;45393;-78
2022/01/05 11:31:38;;;;;;;;;1.00;1.00;;;;;;;;5058230;28;45486;-78
2022/01/05 11:34:05;;;;;;;;;1.33;1.00;;;;;;;;5059212;28;45219;-78
2022/01/05 11:36:32;;;;;;;;;1.00;0.33;;;;;;;;5058259;28;45428;-78
2022/01/05 11:38:57;;;;;;;;;0.00;0.00;;;;;;;;5057963;28;45314;-77
2022/01/05 11:41:22;;;;;;;;;0.00;0.00;;;;;;;;5058717;28;45291;-78
2022/01/05 11:43:48;;;;;;;;;0.00;0.00;;;;;;;;5059008;28;45329;-77
2022/01/05 11:46:14;;;;;;;;;1.00;0.00;;;;;;;;5058773;28;45372;-77
2022/01/05 11:48:40;;;;;;;;;1.00;1.00;;;;;;;;5057979;28;45467;-77
2022/01/05 11:51:06;;;;;;;;;0.00;0.00;;;;;;;;5058352;28;45441;-77
2022/01/05 11:53:35;;;;;;;;;0.00;0.00;;;;;;;;5058271;28;45383;-77
2022/01/05 11:56:01;;;;;;;;;0.00;0.00;;;;;;;;5057811;28;45252;-77
2022/01/05 11:58:28;;;;;;;;;1.00;0.67;;;;;;;;5058345;28;45492;-77
2022/01/05 12:01:12;;;;;;;;;2.00;1.00;;;;;;;;5058651;28;45311;-77
2022/01/05 12:03:59;;;;;;;;;0.00;0.00;;;;;;;;5059181;28;45353;-76
2022/01/05 12:06:25;;;;;;;;;1.00;1.00;;;;;;;;5058232;28;45423;-77
2022/01/05 12:08:52;;;;;;;;;4.33;4.00;;;;;;;;5057843;28;45371;-77
2022/01/05 12:11:31;;;;;;;;;2.67;2.00;;;;;;;;5057801;28;45441;-77
2022/01/05 12:14:00;;;;;;;;;1.33;1.00;;;;;;;;5057834;28;45322;-77
2022/01/05 12:16:26;;;;;;;;;0.00;0.00;;;;;;;;5057427;28;46176;-77
2022/01/05 12:19:14;;;;;;;;;11.50;6.00;;;;;;;;5057484;28;45490;-78
2022/01/05 12:21:42;;;;;;;;;2.00;2.00;;;;;;;;5057718;28;45412;-78
2022/01/05 12:24:08;;;;;;;;;13.50;12.50;;;;;;;;5057914;28;45367;-77
2022/01/05 12:26:33;;;;;;;;;6.75;5.75;;;;;;;;5057323;28;45960;-78
2022/01/05 12:28:58;;;;;;;;;4.00;4.00;;;;;;;;5057329;28;45236;-77
2022/01/05 12:32:02;;;;;;;;;5.00;5.00;;;;;;;;5056376;28;45353;-78
2022/01/05 12:34:46;;;;;;;;;3.75;2.00;;;;;;;;5034802;28;45387;-77
2022/01/05 12:37:30;;;;;;;;;0.00;0.00;;;;;;;;5034738;28;45299;-78
2022/01/05 12:39:57;;;;;;;;;0.00;0.00;;;;;;;;5050463;28;45495;-77
2022/01/05 12:42:22;;;;;;;;;0.50;0.00;;;;;;;;5057235;28;45468;-77
2022/01/05 12:44:48;;;;;;;;;1.75;1.00;;;;;;;;5057398;28;45501;-78
2022/01/05 12:47:14;;;;;;;;;5.25;2.50;;;;;;;;5057058;28;46229;-78
2022/01/05 12:49:39;;;;;;;;;3.75;3.00;;;;;;;;5057699;28;45425;-78
2022/01/05 12:52:08;;;;;;;;;1.00;1.00;;;;;;;;5060993;28;45352;-78
2022/01/05 12:54:44;;;;;;;;;0.25;0.25;;;;;;;;5060131;28;45487;-78
2022/01/05 12:57:14;;;;;;;;;1.00;1.00;;;;;;;;5061291;28;45432;-77
2022/01/05 12:59:42;;;;;;;;;1.25;1.00;;;;;;;;5061432;28;45466;-77
2022/01/05 13:02:13;;;;;;;;;3.25;2.00;;;;;;;;5061019;28;45428;-78
2022/01/05 13:04:42;;;;;;;;;0.00;0.00;;;;;;;;5061363;28;45222;-78
2022/01/05 13:07:07;;;;;;;;;0.00;0.00;;;;;;;;5060930;28;45542;-78
2022/01/05 13:09:36;;;;;;;;;6.00;4.50;;;;;;;;5060643;28;45391;-78
2022/01/05 13:12:09;;;;;;;;;8.75;7.25;;;;;;;;5060687;28;45560;-78
2022/01/05 13:14:34;;;;;;;;;3.50;2.00;;;;;;;;5060531;28;45157;-78
2022/01/05 13:17:01;;;;;;;;;2.00;2.00;;;;;;;;5059976;28;46167;-78
2022/01/05 13:19:31;;;;;;;;;2.00;1.25;;;;;;;;5060234;28;45406;-78
2022/01/05 13:21:59;;;;;;;;;41.00;36.50;;;;;;;;5060535;28;45440;-78
2022/01/05 13:24:39;;;;;;;;;37.00;32.00;;;;;;;;5060176;28;45168;-77
2022/01/05 13:27:06;;;;;;;;;33.50;28.25;;;;;;;;5058721;28;47249;-78
2022/01/05 13:29:32;;;;;;;;;1.50;1.00;;;;;;;;5060161;28;45474;-78
2022/01/05 13:31:59;;;;;;;;;6.00;6.00;;;;;;;;5059860;28;45409;-77
2022/01/05 13:34:28;;;;;;;;;1.00;1.00;;;;;;;;5060061;28;45486;-78
2022/01/05 13:36:54;;;;;;;;;0.00;0.00;;;;;;;;5060072;28;45547;-77
2022/01/05 13:39:35;;;;;;;;;1.00;0.00;;;;;;;;5060779;28;45515;-78
2022/01/05 13:42:01;;;;;;;;;0.00;0.00;;;;;;;;5060655;28;45227;-77
2022/01/05 13:44:26;;;;;;;;;0.00;0.00;;;;;;;;5058716;28;45439;-77
2022/01/05 13:46:52;;;;;;;;;0.00;0.00;;;;;;;;5059813;28;46494;-77
2022/01/05 13:49:17;;;;;;;;;0.00;0.00;;;;;;;;5060096;28;45357;-78
2022/01/05 13:51:59;;;;;;;;;0.00;0.00;;;;;;;;5060162;28;45438;-78
2022/01/05 13:54:25;;;;;;;;;0.00;0.00;;;;;;;;5058701;28;45413;-78
2022/01/05 13:56:51;;;;;;;;;0.00;0.00;;;;;;;;5059379;28;45510;-78
2022/01/05 13:59:16;;;;;;;;;0.00;0.00;;;;;;;;5059468;28;45317;-78
2022/01/05 14:01:54;;;;;;;;;0.00;0.00;;;;;;;;5059558;28;45443;-78
2022/01/05 14:04:19;;;;;;;;;0.00;0.00;;;;;;;;5059991;28;45529;-78
2022/01/05 14:06:45;;;;;;;;;0.00;0.00;;;;;;;;5060022;28;46136;-78
2022/01/05 14:09:10;;;;;;;;;0.00;0.00;;;;;;;;5059575;28;45321;-78
2022/01/05 14:11:36;;;;;;;;;0.33;0.00;;;;;;;;5059810;28;45581;-78
2022/01/05 14:14:08;;;;;;;;;0.00;0.00;;;;;;;;5059572;28;45187;-78
2022/01/05 14:16:41;;;;;;;;;0.33;0.00;;;;;;;;5059379;28;45399;-78
2022/01/05 14:19:25;;;;;;;;;0.67;0.00;;;;;;;;5058894;28;45325;-80
2022/01/05 14:21:51;;;;;;;;;1.33;1.00;;;;;;;;5058710;28;45663;-79
2022/01/05 14:24:17;;;;;;;;;0.00;0.00;;;;;;;;5059152;28;45372;-79
2022/01/05 14:26:45;;;;;;;;;1.67;0.00;;;;;;;;5059415;28;46653;-79
2022/01/05 14:29:10;;;;;;;;;1.00;1.00;;;;;;;;5059153;28;45318;-80
2022/01/05 14:31:40;;;;;;;;;1.00;0.00;;;;;;;;5059347;28;45286;-79
2022/01/05 14:34:11;;;;;;;;;1.00;1.00;;;;;;;;5059271;28;45364;-75
2022/01/05 14:36:38;;;;;;;;;4.00;4.00;;;;;;;;5058798;28;46133;-76
2022/01/05 14:39:06;;;;;;;;;1.00;1.00;;;;;;;;5059002;28;45463;-74
2022/01/05 14:41:39;;;;;;;;;0.00;0.00;;;;;;;;5059286;28;45845;-74